Time;durP1;ratioP1;P1;durP2;ratioP2;P2;SDS_P1;SDS_P2;PMS_P1;PMS_P2;Temp;Humidity;BMP_temperature;BMP_pressure;BME280_temperature;BME280_humidity;BME280_pressure;Samples;Min_cycle;Max_cycle;Signal;HPM_P1;HPM_P2
2021/12/31 00:00:50;;;;;;;5.93;2.35;;;15.10;99.90;;;;;;2078329;28;20037;-72
2021/12/31 00:01:52;;;;;;;6.93;2.55;;;15.10;99.90;;;;;;2080737;28;20112;-72
2021/12/31 00:02:53;;;;;;;4.18;2.45;;;15.10;99.90;;;;;;2080215;28;20028;-72
2021/12/31 00:03:55;;;;;;;10.48;3.20;;;15.10;99.90;;;;;;2079911;28;20492;-72
2021/12/31 00:04:56;;;;;;;7.03;2.33;;;15.10;99.90;;;;;;2079105;28;20022;-72
2021/12/31 00:05:56;;;;;;;6.10;2.63;;;15.10;99.90;;;;;;2082788;28;20845;-72
2021/12/31 00:06:58;;;;;;;9.27;2.60;;;15.10;99.90;;;;;;2080903;28;20115;-72
2021/12/31 00:07:58;;;;;;;6.53;2.25;;;15.10;99.90;;;;;;2085602;28;20489;-72
2021/12/31 00:09:04;;;;;;;5.68;2.63;;;15.10;99.90;;;;;;2085270;28;20410;-72
2021/12/31 00:10:06;;;;;;;4.03;2.47;;;15.10;99.90;;;;;;2089160;28;20017;-72
2021/12/31 00:11:06;;;;;;;2.42;2.15;;;15.10;99.90;;;;;;2077214;28;20053;-72
2021/12/31 00:12:08;;;;;;;7.20;2.70;;;15.10;99.90;;;;;;2072836;28;20041;-72
2021/12/31 00:13:08;;;;;;;8.40;2.40;;;15.10;99.90;;;;;;2080989;28;20546;-72
2021/12/31 00:14:09;;;;;;;6.90;2.75;;;15.10;99.90;;;;;;2080952;28;20507;-72
2021/12/31 00:15:11;;;;;;;8.13;2.83;;;15.10;99.90;;;;;;2080080;28;20026;-72
2021/12/31 00:16:12;;;;;;;7.97;2.65;;;15.20;99.90;;;;;;2080081;28;20472;-72
2021/12/31 00:17:12;;;;;;;6.63;2.50;;;15.10;99.90;;;;;;2080402;28;20068;-72
2021/12/31 00:18:13;;;;;;;6.47;2.50;;;15.10;99.90;;;;;;2080035;28;20060;-72
2021/12/31 00:19:14;;;;;;;5.82;2.40;;;15.10;99.90;;;;;;2084295;28;20086;-72
2021/12/31 00:20:19;;;;;;;4.85;2.03;;;15.10;99.90;;;;;;2073054;28;20022;-72
2021/12/31 00:21:20;;;;;;;6.47;2.63;;;15.10;99.90;;;;;;2089341;28;20017;-72
2021/12/31 00:22:46;;;;;;;5.60;2.45;;;15.10;99.90;;;;;;2088988;28;20029;-72
2021/12/31 00:23:43;;;;;;;7.82;2.33;;;15.10;99.90;;;;;;2089160;28;20112;-72
2021/12/31 00:24:43;;;;;;;7.78;2.72;;;15.00;99.90;;;;;;2088266;28;20025;-72
2021/12/31 00:25:44;;;;;;;3.65;1.90;;;15.10;99.90;;;;;;2088542;28;20032;-72
2021/12/31 00:26:45;;;;;;;5.70;2.45;;;15.10;99.90;;;;;;2079967;28;20033;-72
2021/12/31 00:27:46;;;;;;;4.55;2.35;;;15.10;99.90;;;;;;2088101;28;20025;-72
2021/12/31 00:28:46;;;;;;;5.53;2.20;;;15.10;99.90;;;;;;2088925;28;20643;-72
2021/12/31 00:29:46;;;;;;;5.00;2.10;;;15.10;99.90;;;;;;2089241;28;20029;-72
2021/12/31 00:30:53;;;;;;;6.97;2.10;;;15.10;99.90;;;;;;2088961;28;20013;-72
2021/12/31 00:31:53;;;;;;;7.32;2.50;;;15.10;99.90;;;;;;2089379;28;20508;-72
2021/12/31 00:32:54;;;;;;;5.90;2.10;;;15.10;99.90;;;;;;2089127;28;20409;-72
2021/12/31 00:33:54;;;;;;;3.80;1.80;;;15.10;99.90;;;;;;2089225;28;20033;-72
2021/12/31 00:34:55;;;;;;;5.38;2.25;;;15.10;99.90;;;;;;2086425;28;20033;-72
2021/12/31 00:35:56;;;;;;;5.40;2.13;;;15.10;99.90;;;;;;2088679;28;20033;-72
2021/12/31 00:36:56;;;;;;;5.40;2.15;;;15.10;99.90;;;;;;2085163;28;20037;-72
2021/12/31 00:37:57;;;;;;;8.38;2.47;;;15.10;99.90;;;;;;2080304;28;20524;-73
2021/12/31 00:38:59;;;;;;;5.30;1.95;;;15.10;99.90;;;;;;2079596;28;20033;-72
2021/12/31 00:40:00;;;;;;;4.43;2.10;;;15.10;99.90;;;;;;2081011;28;20022;-72
2021/12/31 00:41:01;;;;;;;4.55;1.85;;;15.10;99.90;;;;;;2080619;28;20033;-72
2021/12/31 00:42:02;;;;;;;6.18;2.20;;;15.10;99.90;;;;;;2081082;28;20033;-72
2021/12/31 00:43:06;;;;;;;5.97;2.35;;;15.20;99.90;;;;;;2080678;28;20029;-72
2021/12/31 00:44:07;;;;;;;9.77;2.35;;;15.10;99.90;;;;;;2080786;28;20104;-72
2021/12/31 00:45:10;;;;;;;5.57;2.25;;;15.10;99.90;;;;;;2079795;28;20022;-72
2021/12/31 00:46:10;;;;;;;7.85;2.03;;;15.10;99.90;;;;;;2079862;28;20037;-72
2021/12/31 00:47:11;;;;;;;6.43;1.98;;;15.10;99.90;;;;;;2079825;28;20029;-72
2021/12/31 00:48:13;;;;;;;6.30;1.92;;;15.10;99.90;;;;;;2075918;28;20029;-72
2021/12/31 00:49:14;;;;;;;6.50;2.05;;;15.10;99.90;;;;;;2080512;28;20112;-71
2021/12/31 00:50:16;;;;;;;4.95;1.98;;;15.10;99.90;;;;;;2086381;28;20043;-72
2021/12/31 00:51:16;;;;;;;5.32;1.65;;;15.10;99.90;;;;;;2088243;28;20032;-72
2021/12/31 00:52:17;;;;;;;3.53;2.08;;;15.20;99.90;;;;;;2089177;28;20052;-72
2021/12/31 00:53:17;;;;;;;5.45;1.75;;;15.20;99.90;;;;;;2088682;28;20083;-72
2021/12/31 00:54:18;;;;;;;6.45;2.00;;;15.20;99.90;;;;;;2096600;28;20131;-71
2021/12/31 00:55:18;;;;;;;4.30;1.90;;;15.20;99.90;;;;;;2094882;28;20032;-72
2021/12/31 00:56:19;;;;;;;3.40;1.90;;;15.20;99.90;;;;;;2083787;28;20029;-72
2021/12/31 00:57:23;;;;;;;5.15;2.40;;;15.20;99.90;;;;;;2082728;28;20132;-72
2021/12/31 00:58:23;;;;;;;6.05;2.40;;;15.20;99.90;;;;;;2080937;28;20092;-72
2021/12/31 00:59:24;;;;;;;6.43;2.28;;;15.20;99.90;;;;;;2080038;28;20061;-72
2021/12/31 01:00:25;;;;;;;5.20;2.00;;;15.20;99.90;;;;;;2079903;28;20489;-72
2021/12/31 01:01:26;;;;;;;3.55;1.80;;;15.20;99.90;;;;;;2084640;28;20171;-72
2021/12/31 01:02:28;;;;;;;6.20;1.95;;;15.20;99.90;;;;;;2078129;28;20022;-72
2021/12/31 01:03:29;;;;;;;3.78;1.77;;;15.20;99.90;;;;;;2079767;28;20045;-72
2021/12/31 01:04:30;;;;;;;5.38;2.00;;;15.20;99.90;;;;;;2071673;28;20018;-72
2021/12/31 01:05:31;;;;;;;3.70;1.83;;;15.20;99.90;;;;;;2071922;28;20018;-72
2021/12/31 01:06:32;;;;;;;7.00;2.35;;;15.20;99.90;;;;;;2078953;28;20575;-72
2021/12/31 01:07:32;;;;;;;4.80;1.60;;;15.20;99.90;;;;;;2079527;28;20017;-72
2021/12/31 01:08:33;;;;;;;3.88;1.95;;;15.30;99.90;;;;;;2080712;28;20022;-72
2021/12/31 01:09:34;;;;;;;4.13;1.73;;;15.30;99.90;;;;;;2080359;28;20029;-72
2021/12/31 01:10:35;;;;;;;7.63;2.53;;;15.30;99.90;;;;;;2076633;28;20029;-71
2021/12/31 01:11:35;;;;;;;4.88;2.15;;;15.30;99.90;;;;;;2073312;28;20032;-72
2021/12/31 01:12:36;;;;;;;6.15;1.92;;;15.30;99.90;;;;;;2080284;28;20393;-72
2021/12/31 01:15:58;;;;;;;3.70;1.83;;;15.30;99.90;;;;;;2076253;28;20527;-72
2021/12/31 01:17:05;;;;;;;5.78;1.77;;;15.30;99.90;;;;;;2079860;28;20028;-72
2021/12/31 01:20:11;;;;;;;5.72;1.88;;;15.30;99.90;;;;;;2088756;28;20480;-72
2021/12/31 01:21:11;;;;;;;6.70;2.10;;;15.30;99.90;;;;;;2088810;28;20408;-72
2021/12/31 01:22:29;;;;;;;6.72;1.88;;;15.30;99.90;;;;;;2088677;28;20049;-72
2021/12/31 01:23:34;;;;;;;6.05;1.83;;;15.30;99.90;;;;;;2088887;28;20025;-72
2021/12/31 01:24:35;;;;;;;4.93;1.98;;;15.30;99.90;;;;;;2088734;28;20351;-72
2021/12/31 01:25:36;;;;;;;7.30;2.30;;;15.30;99.90;;;;;;2085535;28;20072;-72
2021/12/31 01:26:37;;;;;;;3.35;2.15;;;15.30;99.90;;;;;;2080372;28;20382;-72
2021/12/31 01:27:38;;;;;;;3.72;1.85;;;15.30;99.90;;;;;;2079469;28;20096;-71
2021/12/31 01:28:39;;;;;;;4.40;1.73;;;15.30;99.90;;;;;;2080311;28;20654;-72
2021/12/31 01:29:40;;;;;;;6.38;2.10;;;15.30;99.90;;;;;;2080640;28;20540;-72
2021/12/31 01:30:41;;;;;;;4.90;1.38;;;15.30;99.90;;;;;;2080370;28;20021;-72
2021/12/31 01:31:41;;;;;;;7.57;1.83;;;15.30;99.90;;;;;;2080722;28;20112;-72
2021/12/31 01:32:43;;;;;;;4.47;1.73;;;15.30;99.90;;;;;;2080452;28;20433;-72
2021/12/31 01:33:43;;;;;;;4.18;1.40;;;15.30;99.90;;;;;;2080604;28;20144;-72
2021/12/31 01:34:44;;;;;;;3.85;1.67;;;15.30;99.90;;;;;;2080510;28;20083;-72
2021/12/31 01:35:44;;;;;;;5.35;2.03;;;15.40;99.90;;;;;;2080550;28;20465;-71
2021/12/31 01:36:45;;;;;;;4.00;1.58;;;15.30;99.90;;;;;;2080440;28;20056;-72
2021/12/31 01:37:46;;;;;;;7.15;1.90;;;15.30;99.90;;;;;;2078792;28;20132;-71
2021/12/31 01:38:46;;;;;;;3.83;1.55;;;15.30;99.90;;;;;;2076357;28;20064;-71
2021/12/31 01:39:47;;;;;;;4.40;1.40;;;15.40;99.90;;;;;;2087869;28;20424;-72
2021/12/31 01:40:49;;;;;;;4.95;1.77;;;15.40;99.90;;;;;;2096544;28;20017;-72
2021/12/31 01:41:49;;;;;;;6.65;1.98;;;15.40;99.90;;;;;;2086023;28;20047;-71
2021/12/31 01:42:50;;;;;;;2.75;1.52;;;15.40;99.90;;;;;;2080459;28;20472;-72
2021/12/31 01:43:52;;;;;;;5.30;1.83;;;15.40;99.90;;;;;;2080271;28;20443;-72
2021/12/31 01:44:57;;;;;;;3.22;1.40;;;15.40;99.90;;;;;;2080446;28;20032;-72
2021/12/31 01:46:00;;;;;;;5.10;1.95;;;15.40;99.90;;;;;;2080188;28;20017;-72
2021/12/31 01:47:05;;;;;;;5.15;1.50;;;15.40;99.90;;;;;;2078620;28;20021;-72
2021/12/31 01:48:09;;;;;;;4.45;1.92;;;15.40;99.90;;;;;;2084734;28;20104;-72
2021/12/31 01:49:19;;;;;;;4.00;1.75;;;15.40;99.90;;;;;;2080379;28;20105;-72
2021/12/31 01:50:20;;;;;;;;;;;15.40;99.90;;;;;;2086842;28;20441;-71
2021/12/31 01:51:21;;;;;;;6.93;1.67;;;15.30;99.90;;;;;;2087867;28;20632;-71
2021/12/31 01:52:22;;;;;;;3.63;1.55;;;15.30;99.90;;;;;;2088597;28;20450;-72
2021/12/31 01:53:25;;;;;;;3.83;1.70;;;15.40;99.90;;;;;;2088520;28;20075;-72
2021/12/31 01:54:26;;;;;;;3.65;1.60;;;15.40;99.90;;;;;;2088326;28;20052;-72
2021/12/31 01:55:32;;;;;;;5.35;2.47;;;15.40;99.90;;;;;;2082254;28;20033;-72
2021/12/31 01:56:34;;;;;;;3.55;1.90;;;15.40;99.90;;;;;;2076748;28;20026;-72
2021/12/31 01:57:35;;;;;;;2.30;1.42;;;15.40;99.90;;;;;;2074986;28;20048;-72
2021/12/31 01:58:36;;;;;;;6.45;1.95;;;15.40;99.90;;;;;;2079215;28;20080;-72
2021/12/31 01:59:38;;;;;;;5.07;1.85;;;15.40;99.90;;;;;;2079404;28;20556;-72
2021/12/31 02:00:39;;;;;;;6.78;2.42;;;15.40;99.90;;;;;;2088076;28;20147;-72
2021/12/31 02:01:39;;;;;;;4.00;1.20;;;15.40;99.90;;;;;;2080404;28;20086;-72
2021/12/31 02:02:44;;;;;;;3.33;1.75;;;15.40;99.90;;;;;;2077169;28;20030;-72
2021/12/31 02:03:45;;;;;;;3.65;1.50;;;15.50;99.90;;;;;;2080372;28;20014;-72
2021/12/31 02:04:46;;;;;;;3.90;1.92;;;15.50;99.90;;;;;;2080055;28;20017;-72
2021/12/31 02:05:47;;;;;;;3.97;1.50;;;15.40;99.90;;;;;;2080463;28;20829;-72
2021/12/31 02:06:47;;;;;;;3.15;1.30;;;15.40;99.90;;;;;;2079644;28;20017;-72
2021/12/31 02:07:48;;;;;;;4.13;1.50;;;15.50;99.90;;;;;;2077151;28;20036;-72
2021/12/31 02:08:48;;;;;;;6.38;1.50;;;15.50;99.90;;;;;;2074116;28;20026;-72
2021/12/31 02:09:54;;;;;;;3.53;1.48;;;15.50;99.90;;;;;;2073910;28;20602;-72
2021/12/31 02:10:54;;;;;;;3.20;1.50;;;15.50;99.90;;;;;;2086754;28;20472;-73
2021/12/31 02:11:55;;;;;;;4.07;1.42;;;15.50;99.90;;;;;;2086826;28;20409;-72
2021/12/31 02:12:56;;;;;;;4.75;1.85;;;15.50;99.90;;;;;;2086403;28;20025;-72
2021/12/31 02:13:58;;;;;;;2.65;1.42;;;15.50;99.90;;;;;;2088354;28;20078;-72
2021/12/31 02:14:59;;;;;;;3.97;1.30;;;15.50;99.90;;;;;;2092350;28;20033;-72
2021/12/31 02:15:59;;;;;;;3.25;1.50;;;15.50;99.90;;;;;;2079012;28;20116;-72
2021/12/31 02:17:00;;;;;;;3.58;1.83;;;15.50;99.90;;;;;;2079407;28;20057;-72
2021/12/31 02:18:03;;;;;;;3.00;1.33;;;15.50;99.90;;;;;;2082443;28;20036;-72
2021/12/31 02:19:14;;;;;;;2.38;1.13;;;15.50;99.90;;;;;;2078581;28;20025;-72
2021/12/31 02:20:17;;;;;;;3.67;1.50;;;15.50;99.90;;;;;;2079470;28;20033;-72
2021/12/31 02:21:18;;;;;;;7.60;1.65;;;15.50;99.90;;;;;;2080136;28;20374;-72
2021/12/31 02:22:25;;;;;;;3.00;1.40;;;15.50;99.90;;;;;;2083273;28;20051;-72
2021/12/31 02:23:32;;;;;;;3.75;1.73;;;15.50;99.90;;;;;;2087650;28;20037;-72
2021/12/31 02:24:35;;;;;;;5.72;2.05;;;15.50;99.90;;;;;;2087010;28;20029;-72
2021/12/31 02:25:37;;;;;;;3.63;1.33;;;15.50;99.90;;;;;;2083086;28;20023;-72
2021/12/31 02:26:38;;;;;;;4.68;1.70;;;15.50;99.90;;;;;;2080969;28;20420;-72
2021/12/31 02:27:39;;;;;;;5.05;1.42;;;15.50;99.90;;;;;;2079574;28;20499;-72
2021/12/31 02:28:40;;;;;;;2.13;1.40;;;15.50;99.90;;;;;;2079900;28;20052;-72
2021/12/31 02:29:41;;;;;;;2.13;1.45;;;15.50;99.90;;;;;;2080162;28;20018;-72
2021/12/31 02:30:42;;;;;;;3.58;1.55;;;15.50;99.90;;;;;;2079677;28;20029;-72
2021/12/31 02:31:43;;;;;;;4.45;1.48;;;15.50;99.90;;;;;;2080327;28;20044;-72
2021/12/31 02:32:44;;;;;;;3.72;1.83;;;15.50;99.90;;;;;;2087403;28;20084;-72
2021/12/31 02:33:44;;;;;;;4.25;1.77;;;15.50;99.90;;;;;;2088530;28;20017;-72
2021/12/31 02:34:46;;;;;;;2.80;1.65;;;15.50;99.90;;;;;;2087319;28;20446;-72
2021/12/31 02:35:47;;;;;;;2.58;1.45;;;15.50;99.90;;;;;;2078997;28;20537;-72
2021/12/31 02:36:48;;;;;;;7.78;1.73;;;15.50;99.90;;;;;;2082134;28;20029;-72
2021/12/31 02:37:48;;;;;;;3.80;1.40;;;15.50;99.90;;;;;;2087789;28;20025;-71
2021/12/31 02:38:50;;;;;;;4.85;1.90;;;15.50;99.90;;;;;;2088163;28;20044;-72
2021/12/31 02:39:50;;;;;;;2.92;1.83;;;15.50;99.90;;;;;;2088265;28;20025;-72
2021/12/31 02:40:51;;;;;;;2.15;1.10;;;15.50;99.90;;;;;;2088193;28;20017;-72
2021/12/31 02:41:52;;;;;;;3.88;1.50;;;15.50;99.90;;;;;;2083452;28;20027;-72
2021/12/31 02:42:52;;;;;;;3.45;1.83;;;15.50;99.90;;;;;;2071550;28;20026;-72
2021/12/31 02:43:53;;;;;;;2.75;1.33;;;15.50;99.90;;;;;;2078983;28;20049;-72
2021/12/31 02:44:55;;;;;;;4.50;1.48;;;15.50;99.90;;;;;;2079426;28;20030;-72
2021/12/31 02:45:56;;;;;;;3.88;1.42;;;15.50;99.90;;;;;;2079725;28;20022;-72
2021/12/31 02:46:57;;;;;;;2.80;1.25;;;15.50;99.90;;;;;;2085945;28;20009;-72
2021/12/31 02:48:00;;;;;;;4.03;1.30;;;15.60;99.90;;;;;;2089314;28;20044;-72
2021/12/31 02:49:01;;;;;;;2.92;1.38;;;15.60;99.90;;;;;;2084273;28;20021;-72
2021/12/31 02:50:04;;;;;;;3.30;1.70;;;15.50;99.90;;;;;;2079738;28;20037;-72
2021/12/31 02:51:06;;;;;;;6.32;1.70;;;15.50;99.90;;;;;;2079958;28;20017;-72
2021/12/31 02:52:10;;;;;;;3.30;1.70;;;15.60;99.90;;;;;;2080365;28;20021;-72
2021/12/31 02:53:14;;;;;;;3.17;1.85;;;15.50;99.90;;;;;;2080004;28;20033;-72
2021/12/31 02:54:17;;;;;;;2.50;1.33;;;15.50;99.90;;;;;;2080017;28;20021;-72
2021/12/31 02:55:18;;;;;;;1.65;1.25;;;15.50;99.90;;;;;;2079014;28;20384;-72
2021/12/31 02:56:20;;;;;;;3.58;1.25;;;15.50;99.90;;;;;;2082795;28;20096;-72
2021/12/31 02:57:21;;;;;;;2.67;1.40;;;15.60;99.90;;;;;;2087846;28;20025;-72
2021/12/31 02:58:22;;;;;;;3.38;1.27;;;15.50;99.90;;;;;;2087903;28;20044;-72
2021/12/31 02:59:22;;;;;;;2.55;1.48;;;15.60;99.90;;;;;;2088032;28;20025;-72
2021/12/31 03:00:23;;;;;;;3.85;1.83;;;15.60;99.90;;;;;;2087991;28;20395;-72
2021/12/31 03:01:24;;;;;;;2.80;1.42;;;15.60;99.90;;;;;;2089191;28;20501;-72
2021/12/31 03:02:25;;;;;;;4.45;1.42;;;15.50;99.90;;;;;;2089468;28;20393;-72
2021/12/31 03:03:28;;;;;;;3.88;1.70;;;15.50;99.90;;;;;;2089180;28;20696;-72
2021/12/31 03:04:30;;;;;;;2.58;1.38;;;15.60;99.90;;;;;;2080943;28;20029;-72
2021/12/31 03:05:32;;;;;;;4.30;1.85;;;15.60;99.90;;;;;;2081094;28;20508;-72
2021/12/31 03:06:33;;;;;;;3.33;1.65;;;15.60;99.90;;;;;;2087505;28;20410;-72
2021/12/31 03:07:36;;;;;;;7.05;1.75;;;15.50;99.90;;;;;;2088871;28;20028;-72
2021/12/31 03:08:41;;;;;;;4.88;1.85;;;15.50;99.90;;;;;;2089380;28;20017;-72
2021/12/31 03:09:46;;;;;;;4.50;1.60;;;15.50;99.90;;;;;;2089133;28;20013;-72
2021/12/31 03:10:47;;;;;;;2.75;1.52;;;15.50;99.90;;;;;;2079326;28;20120;-72
2021/12/31 03:11:49;;;;;;;4.07;1.27;;;15.50;99.90;;;;;;2081167;28;20057;-72
2021/12/31 03:12:51;;;;;;;2.40;1.40;;;15.50;99.90;;;;;;2080831;28;20021;-72
2021/12/31 03:13:54;;;;;;;2.67;1.23;;;15.50;99.90;;;;;;2081015;28;20044;-72
2021/12/31 03:14:55;;;;;;;4.13;1.85;;;15.60;99.90;;;;;;2080895;28;20112;-72
2021/12/31 03:15:58;;;;;;;2.65;1.35;;;15.60;99.90;;;;;;2081007;28;20025;-72
2021/12/31 03:17:00;;;;;;;3.28;1.75;;;15.60;99.90;;;;;;2080202;28;20029;-72
2021/12/31 03:18:03;;;;;;;3.83;1.50;;;15.50;99.90;;;;;;2088424;28;20558;-72
2021/12/31 03:19:04;;;;;;;3.80;1.42;;;15.50;99.90;;;;;;2089008;28;20033;-72
2021/12/31 03:20:14;;;;;;;2.45;1.50;;;15.50;99.90;;;;;;2096697;28;20071;-72
2021/12/31 03:21:21;;;;;;;3.40;1.85;;;15.50;99.90;;;;;;2095411;28;20389;-72
2021/12/31 03:22:24;;;;;;;4.40;1.27;;;15.50;99.90;;;;;;2088571;28;20125;-72
2021/12/31 03:23:26;;;;;;;3.42;1.67;;;15.50;99.90;;;;;;2088639;28;20071;-72
2021/12/31 03:24:26;;;;;;;3.00;1.60;;;15.50;99.90;;;;;;2079991;28;20017;-72
2021/12/31 03:25:27;;;;;;;2.40;1.63;;;15.50;99.90;;;;;;2083803;28;20488;-72
2021/12/31 03:26:27;;;;;;;4.88;1.77;;;15.50;99.90;;;;;;2088591;28;20040;-72
2021/12/31 03:27:28;;;;;;;2.92;1.42;;;15.50;99.90;;;;;;2080233;28;20052;-72
2021/12/31 03:28:29;;;;;;;2.28;1.42;;;15.50;99.90;;;;;;2081024;28;20025;-72
2021/12/31 03:29:30;;;;;;;5.65;1.65;;;15.50;99.90;;;;;;2080771;28;20032;-72
2021/12/31 03:30:30;;;;;;;3.63;1.60;;;15.50;99.90;;;;;;2080875;28;20075;-72
2021/12/31 03:31:31;;;;;;;3.67;1.30;;;15.50;99.90;;;;;;2079863;28;20032;-72
2021/12/31 03:32:32;;;;;;;2.63;1.42;;;15.50;99.90;;;;;;2087597;28;20021;-72
2021/12/31 03:33:32;;;;;;;4.18;1.65;;;15.50;99.90;;;;;;2088842;28;20029;-72
2021/12/31 03:34:33;;;;;;;2.00;1.40;;;15.50;99.90;;;;;;2089266;28;20024;-72
2021/12/31 03:35:33;;;;;;;7.20;2.15;;;15.50;99.90;;;;;;2083964;28;20425;-72
2021/12/31 03:36:34;;;;;;;3.50;1.25;;;15.60;99.90;;;;;;2081010;28;20018;-72
2021/12/31 03:37:34;;;;;;;3.75;1.60;;;15.50;99.90;;;;;;2080327;28;20627;-72
2021/12/31 03:38:35;;;;;;;2.75;1.33;;;15.50;99.90;;;;;;2081006;28;20451;-72
2021/12/31 03:39:35;;;;;;;3.03;1.70;;;15.50;99.90;;;;;;2080158;28;20029;-72
2021/12/31 03:40:36;;;;;;;5.57;1.90;;;15.50;99.90;;;;;;2086508;28;20025;-72
2021/12/31 03:41:37;;;;;;;2.28;1.30;;;15.60;99.90;;;;;;2088730;28;20477;-72
2021/12/31 03:42:39;;;;;;;3.60;1.50;;;15.60;99.90;;;;;;2088996;28;20024;-72
2021/12/31 03:43:40;;;;;;;4.07;1.65;;;15.60;99.90;;;;;;2082287;28;20024;-72
2021/12/31 03:44:41;;;;;;;3.17;1.48;;;15.60;99.90;;;;;;2079644;28;20112;-72
2021/12/31 03:45:42;;;;;;;3.90;1.52;;;15.50;99.90;;;;;;2079088;28;20026;-72
2021/12/31 03:46:43;;;;;;;3.13;1.60;;;15.60;99.90;;;;;;2082025;28;20104;-72
2021/12/31 03:47:43;;;;;;;2.42;1.50;;;15.60;99.90;;;;;;2079971;28;20032;-72
2021/12/31 03:48:44;;;;;;;3.20;1.30;;;15.60;99.90;;;;;;2088443;28;20055;-72
2021/12/31 03:49:44;;;;;;;3.50;1.85;;;15.60;99.90;;;;;;2084395;28;20105;-72
2021/12/31 03:50:45;;;;;;;3.75;1.25;;;15.60;99.90;;;;;;2088995;28;20021;-72
2021/12/31 03:51:45;;;;;;;3.40;1.48;;;15.60;99.90;;;;;;2088877;28;20388;-72
2021/12/31 03:52:46;;;;;;;5.65;1.70;;;15.60;99.90;;;;;;2089256;28;20098;-72
2021/12/31 03:53:47;;;;;;;4.65;1.65;;;15.60;99.90;;;;;;2083516;28;20021;-72
2021/12/31 03:54:47;;;;;;;3.67;1.80;;;15.60;99.90;;;;;;2084500;28;20025;-72
2021/12/31 03:55:48;;;;;;;5.38;1.30;;;15.60;99.90;;;;;;2076442;28;20688;-72
2021/12/31 03:56:48;;;;;;;3.88;1.50;;;15.60;99.90;;;;;;2087032;28;20020;-72
2021/12/31 03:57:49;;;;;;;2.10;1.30;;;15.60;99.90;;;;;;2088481;28;20025;-72
2021/12/31 03:58:50;;;;;;;3.17;1.48;;;15.60;99.90;;;;;;2088561;28;20017;-72
2021/12/31 03:59:51;;;;;;;1.20;0.90;;;15.60;99.90;;;;;;2086131;28;20347;-72
2021/12/31 04:00:51;;;;;;;4.18;1.33;;;15.60;99.90;;;;;;2072982;28;20026;-72
2021/12/31 04:01:52;;;;;;;3.33;1.40;;;15.60;99.90;;;;;;2080721;28;20068;-72
2021/12/31 04:02:52;;;;;;;3.90;1.33;;;15.60;99.90;;;;;;2082900;28;20131;-72
2021/12/31 04:03:54;;;;;;;3.75;1.17;;;15.60;99.90;;;;;;2081411;28;20076;-72
2021/12/31 04:04:54;;;;;;;3.17;1.70;;;15.60;99.90;;;;;;2080139;28;20354;-72
2021/12/31 04:05:55;;;;;;;3.60;1.38;;;15.60;99.90;;;;;;2079700;28;20052;-72
2021/12/31 04:06:56;;;;;;;3.50;1.25;;;15.60;99.90;;;;;;2079857;28;20469;-72
2021/12/31 04:07:56;;;;;;;2.38;1.33;;;15.60;99.90;;;;;;2079574;28;20053;-72
2021/12/31 04:08:57;;;;;;;2.20;1.30;;;15.60;99.90;;;;;;2079260;28;20025;-72
2021/12/31 04:09:58;;;;;;;3.00;1.50;;;15.60;99.90;;;;;;2078251;28;20033;-72
2021/12/31 04:10:58;;;;;;;5.18;1.45;;;15.60;99.90;;;;;;2083168;28;20071;-72
2021/12/31 04:11:59;;;;;;;2.88;1.70;;;15.60;99.90;;;;;;2080631;28;20022;-72
2021/12/31 04:12:59;;;;;;;1.80;1.35;;;15.60;99.90;;;;;;2079018;28;20127;-72
2021/12/31 04:14:00;;;;;;;4.22;1.92;;;15.60;99.90;;;;;;2080204;28;20045;-72
2021/12/31 04:15:00;;;;;;;3.08;1.42;;;15.60;99.90;;;;;;2079063;28;20044;-72
2021/12/31 04:16:01;;;;;;;1.45;1.05;;;15.60;99.90;;;;;;2084717;28;20060;-72
2021/12/31 04:17:01;;;;;;;4.43;1.40;;;15.60;99.90;;;;;;2087533;28;20036;-72
2021/12/31 04:18:02;;;;;;;6.00;1.17;;;15.60;99.90;;;;;;2087335;28;20060;-72
2021/12/31 04:19:03;;;;;;;3.65;1.60;;;15.60;99.90;;;;;;2085052;28;20162;-72
2021/12/31 04:20:04;;;;;;;1.67;1.20;;;15.60;99.90;;;;;;2079145;28;20029;-72
2021/12/31 04:21:05;;;;;;;1.73;0.98;;;15.60;99.90;;;;;;2086569;28;20041;-72
2021/12/31 04:22:07;;;;;;;2.47;1.20;;;15.60;99.90;;;;;;2072747;28;20026;-72
2021/12/31 04:23:14;;;;;;;6.57;1.50;;;15.60;99.90;;;;;;2063607;28;20375;-72
2021/12/31 04:24:27;;;;;;;3.42;1.38;;;15.60;99.90;;;;;;2078643;28;20761;-72
2021/12/31 04:25:27;;;;;;;4.68;1.50;;;15.60;99.90;;;;;;2082358;28;20021;-72
2021/12/31 04:26:28;;;;;;;5.22;1.35;;;15.60;99.90;;;;;;2087191;28;20036;-72
2021/12/31 04:27:28;;;;;;;3.20;1.67;;;15.60;99.90;;;;;;2080216;28;20029;-72
2021/12/31 04:28:29;;;;;;;2.80;1.48;;;15.60;99.90;;;;;;2080300;28;20060;-72
2021/12/31 04:29:30;;;;;;;2.97;1.30;;;15.60;99.90;;;;;;2087449;28;20412;-72
2021/12/31 04:30:30;;;;;;;4.15;1.35;;;15.60;99.90;;;;;;2087007;28;20025;-72
2021/12/31 04:31:31;;;;;;;3.08;1.30;;;15.60;99.90;;;;;;2086628;28;20033;-72
2021/12/31 04:32:32;;;;;;;2.65;1.40;;;15.60;99.90;;;;;;2087678;28;20025;-72
2021/12/31 04:33:32;;;;;;;2.75;1.42;;;15.60;99.90;;;;;;2087436;28;20496;-72
2021/12/31 04:34:33;;;;;;;3.30;1.33;;;15.60;99.90;;;;;;2087677;28;20028;-72
2021/12/31 04:35:33;;;;;;;4.65;1.52;;;15.60;99.90;;;;;;2080050;28;20103;-72
2021/12/31 04:36:34;;;;;;;3.22;1.40;;;15.60;99.90;;;;;;2079287;28;20026;-72
2021/12/31 04:37:34;;;;;;;6.88;1.58;;;15.60;99.90;;;;;;2078344;28;20029;-72
2021/12/31 04:38:35;;;;;;;6.00;1.67;;;15.60;99.90;;;;;;2082964;28;20036;-72
2021/12/31 04:39:36;;;;;;;4.18;1.48;;;15.60;99.90;;;;;;2087590;28;20032;-72
2021/12/31 04:40:37;;;;;;;2.97;1.60;;;15.60;99.90;;;;;;2087594;28;20902;-72
2021/12/31 04:41:37;;;;;;;3.92;1.45;;;15.60;99.90;;;;;;2085020;28;20036;-72
2021/12/31 04:42:40;;;;;;;2.28;1.30;;;15.70;99.90;;;;;;2080756;28;20022;-72
2021/12/31 04:43:41;;;;;;;2.38;1.15;;;15.60;99.90;;;;;;2079367;28;20463;-72
2021/12/31 04:44:41;;;;;;;2.90;1.23;;;15.60;99.90;;;;;;2080721;28;20018;-72
2021/12/31 04:45:42;;;;;;;4.43;1.45;;;15.60;99.90;;;;;;2080380;28;20040;-72
2021/12/31 04:46:43;;;;;;;5.20;1.85;;;15.60;99.90;;;;;;2084681;28;20445;-72
2021/12/31 04:47:43;;;;;;;2.75;1.40;;;15.60;99.90;;;;;;2078380;28;20033;-72
2021/12/31 04:48:44;;;;;;;4.28;1.80;;;15.60;99.90;;;;;;2086918;28;20049;-72
2021/12/31 04:49:44;;;;;;;3.85;1.80;;;15.60;99.90;;;;;;2089103;28;20020;-72
2021/12/31 04:50:45;;;;;;;2.85;1.45;;;15.60;99.90;;;;;;2089164;28;20025;-72
2021/12/31 04:51:45;;;;;;;2.45;1.23;;;15.60;99.90;;;;;;2089119;28;20025;-72
2021/12/31 04:52:46;;;;;;;2.53;1.27;;;15.60;99.90;;;;;;2088656;28;20445;-72
2021/12/31 04:53:47;;;;;;;3.65;1.63;;;15.60;99.90;;;;;;2082020;28;20045;-72
2021/12/31 04:54:47;;;;;;;2.10;1.20;;;15.60;99.90;;;;;;2084138;28;20028;-72
2021/12/31 04:55:48;;;;;;;2.20;1.52;;;15.60;99.90;;;;;;2083164;28;20036;-72
2021/12/31 04:56:52;;;;;;;3.28;1.40;;;15.60;99.90;;;;;;2086591;28;20093;-72
2021/12/31 04:57:53;;;;;;;2.33;1.20;;;15.60;99.90;;;;;;2078680;28;20018;-72
2021/12/31 04:58:54;;;;;;;2.88;1.50;;;15.60;99.90;;;;;;2080768;28;20056;-72
2021/12/31 04:59:54;;;;;;;3.97;1.50;;;15.60;99.90;;;;;;2080833;28;20036;-72
2021/12/31 05:00:55;;;;;;;4.22;1.60;;;15.60;99.90;;;;;;2080018;28;20093;-72
2021/12/31 05:01:55;;;;;;;5.78;1.60;;;15.60;99.90;;;;;;2081083;28;20363;-72
2021/12/31 05:02:56;;;;;;;5.68;1.20;;;15.60;99.90;;;;;;2077251;28;20026;-72
2021/12/31 05:03:56;;;;;;;4.20;1.48;;;15.60;99.90;;;;;;2080898;28;20029;-72
2021/12/31 05:04:57;;;;;;;5.18;1.40;;;15.60;99.90;;;;;;2087520;28;20021;-72
2021/12/31 05:05:57;;;;;;;3.67;1.30;;;15.60;99.90;;;;;;2088820;28;20033;-72
2021/12/31 05:06:58;;;;;;;4.03;1.80;;;15.60;99.90;;;;;;2089041;28;20154;-72
2021/12/31 05:07:58;;;;;;;3.15;1.40;;;15.60;99.90;;;;;;2082235;28;20033;-72
2021/12/31 05:08:59;;;;;;;2.33;1.55;;;15.60;99.90;;;;;;2080613;28;20013;-72
2021/12/31 05:10:00;;;;;;;2.83;1.52;;;15.60;99.90;;;;;;2080760;28;20029;-72
2021/12/31 05:11:00;;;;;;;3.03;1.30;;;15.60;99.90;;;;;;2080321;28;20040;-72
2021/12/31 05:12:03;;;;;;;3.60;1.13;;;15.60;99.90;;;;;;2080417;28;20469;-73
2021/12/31 05:13:05;;;;;;;1.92;1.10;;;15.60;99.90;;;;;;2087614;28;20060;-72
2021/12/31 05:14:06;;;;;;;2.67;1.30;;;15.60;99.90;;;;;;2088934;28;20405;-72
2021/12/31 05:15:09;;;;;;;2.72;1.65;;;15.60;99.90;;;;;;2082396;28;20029;-72
2021/12/31 05:16:10;;;;;;;2.83;1.20;;;15.60;99.90;;;;;;2086199;28;20032;-72
2021/12/31 05:17:10;;;;;;;3.33;1.40;;;15.60;99.90;;;;;;2088667;28;20457;-72
2021/12/31 05:18:12;;;;;;;4.93;1.10;;;15.60;99.90;;;;;;2080564;28;20091;-72
2021/12/31 05:19:12;;;;;;;4.32;1.70;;;15.50;99.90;;;;;;2080533;28;20030;-72
2021/12/31 05:20:13;;;;;;;3.28;1.17;;;15.60;99.90;;;;;;2080016;28;20053;-72
2021/12/31 05:21:13;;;;;;;3.53;1.30;;;15.60;99.90;;;;;;2079990;28;20044;-72
2021/12/31 05:22:14;;;;;;;2.83;1.38;;;15.60;99.90;;;;;;2080467;28;20061;-72
2021/12/31 05:23:15;;;;;;;3.70;1.15;;;15.50;99.90;;;;;;2080361;28;20051;-72
2021/12/31 05:24:16;;;;;;;1.45;1.10;;;15.50;99.90;;;;;;2080478;28;20022;-72
2021/12/31 05:25:17;;;;;;;3.33;1.13;;;15.50;99.90;;;;;;2080581;28;20376;-72